sensor_id;sensor_type;location;lat;lon;timestamp;P1;durP1;ratioP1;P2;durP2;ratioP2
6434;SDS011;3250;42.694;23.278;2023-04-15T00:00:01;13.23;;;6.95;;
6434;SDS011;3250;42.694;23.278;2023-04-15T00:02:27;14.07;;;6.57;;
6434;SDS011;3250;42.694;23.278;2023-04-15T00:04:53;11.67;;;5.93;;
6434;SDS011;3250;42.694;23.278;2023-04-15T00:07:18;16.98;;;7.03;;
6434;SDS011;3250;42.694;23.278;2023-04-15T00:09:44;13.97;;;7.33;;
6434;SDS011;3250;42.694;23.278;2023-04-15T00:12:10;12.33;;;6.57;;
6434;SDS011;3250;42.694;23.278;2023-04-15T00:14:36;16.10;;;7.67;;
6434;SDS011;3250;42.694;23.278;2023-04-15T00:17:02;14.60;;;7.37;;
6434;SDS011;3250;42.694;23.278;2023-04-15T00:19:28;12.63;;;6.60;;
6434;SDS011;3250;42.694;23.278;2023-04-15T00:21:54;12.77;;;6.47;;
6434;SDS011;3250;42.694;23.278;2023-04-15T00:24:20;11.67;;;6.90;;
6434;SDS011;3250;42.694;23.278;2023-04-15T00:26:46;13.05;;;6.60;;
6434;SDS011;3250;42.694;23.278;2023-04-15T00:29:11;12.30;;;6.23;;
6434;SDS011;3250;42.694;23.278;2023-04-15T00:31:37;13.07;;;7.22;;
6434;SDS011;3250;42.694;23.278;2023-04-15T00:34:02;10.50;;;6.33;;
6434;SDS011;3250;42.694;23.278;2023-04-15T00:36:28;9.77;;;6.37;;
6434;SDS011;3250;42.694;23.278;2023-04-15T00:38:54;11.37;;;5.90;;
6434;SDS011;3250;42.694;23.278;2023-04-15T00:41:19;9.17;;;5.47;;
6434;SDS011;3250;42.694;23.278;2023-04-15T00:43:45;10.30;;;6.43;;
6434;SDS011;3250;42.694;23.278;2023-04-15T00:46:11;12.80;;;6.10;;
6434;SDS011;3250;42.694;23.278;2023-04-15T00:48:39;10.50;;;5.17;;
6434;SDS011;3250;42.694;23.278;2023-04-15T00:51:06;14.33;;;6.23;;
6434;SDS011;3250;42.694;23.278;2023-04-15T00:53:32;11.30;;;5.53;;
6434;SDS011;3250;42.694;23.278;2023-04-15T00:55:57;9.33;;;4.73;;
6434;SDS011;3250;42.694;23.278;2023-04-15T00:58:23;10.33;;;5.10;;
6434;SDS011;3250;42.694;23.278;2023-04-15T01:00:49;12.50;;;4.97;;
6434;SDS011;3250;42.694;23.278;2023-04-15T01:03:18;10.57;;;4.67;;
6434;SDS011;3250;42.694;23.278;2023-04-15T01:05:44;17.70;;;5.47;;
6434;SDS011;3250;42.694;23.278;2023-04-15T01:08:10;12.10;;;5.97;;
6434;SDS011;3250;42.694;23.278;2023-04-15T01:10:36;13.23;;;4.73;;
6434;SDS011;3250;42.694;23.278;2023-04-15T01:13:02;9.27;;;5.30;;
6434;SDS011;3250;42.694;23.278;2023-04-15T01:15:27;12.23;;;4.90;;
6434;SDS011;3250;42.694;23.278;2023-04-15T01:17:53;12.10;;;5.73;;
6434;SDS011;3250;42.694;23.278;2023-04-15T01:20:19;11.65;;;6.68;;
6434;SDS011;3250;42.694;23.278;2023-04-15T01:22:46;9.87;;;4.93;;
6434;SDS011;3250;42.694;23.278;2023-04-15T01:25:15;6.77;;;4.70;;
6434;SDS011;3250;42.694;23.278;2023-04-15T01:27:42;11.50;;;5.30;;
6434;SDS011;3250;42.694;23.278;2023-04-15T01:30:08;8.93;;;5.40;;
6434;SDS011;3250;42.694;23.278;2023-04-15T01:32:34;10.50;;;5.07;;
6434;SDS011;3250;42.694;23.278;2023-04-15T01:35:00;9.77;;;5.17;;
6434;SDS011;3250;42.694;23.278;2023-04-15T01:37:26;6.60;;;4.73;;
6434;SDS011;3250;42.694;23.278;2023-04-15T01:39:53;10.10;;;5.67;;
6434;SDS011;3250;42.694;23.278;2023-04-15T01:42:19;8.83;;;5.67;;
6434;SDS011;3250;42.694;23.278;2023-04-15T01:44:45;9.07;;;5.53;;
6434;SDS011;3250;42.694;23.278;2023-04-15T01:47:11;9.57;;;5.33;;
6434;SDS011;3250;42.694;23.278;2023-04-15T01:49:37;14.17;;;5.97;;
6434;SDS011;3250;42.694;23.278;2023-04-15T01:52:02;10.20;;;5.80;;
6434;SDS011;3250;42.694;23.278;2023-04-15T01:54:27;11.10;;;6.13;;
6434;SDS011;3250;42.694;23.278;2023-04-15T01:56:53;12.50;;;6.10;;
6434;SDS011;3250;42.694;23.278;2023-04-15T01:59:18;9.33;;;5.27;;
6434;SDS011;3250;42.694;23.278;2023-04-15T02:01:43;13.73;;;7.00;;
6434;SDS011;3250;42.694;23.278;2023-04-15T02:04:09;10.27;;;6.17;;
6434;SDS011;3250;42.694;23.278;2023-04-15T02:06:41;11.93;;;6.00;;
6434;SDS011;3250;42.694;23.278;2023-04-15T02:09:07;12.87;;;4.97;;
6434;SDS011;3250;42.694;23.278;2023-04-15T02:11:33;9.17;;;5.30;;
6434;SDS011;3250;42.694;23.278;2023-04-15T02:14:00;11.20;;;5.87;;
6434;SDS011;3250;42.694;23.278;2023-04-15T02:16:25;13.37;;;6.33;;
6434;SDS011;3250;42.694;23.278;2023-04-15T02:18:50;11.00;;;6.63;;
6434;SDS011;3250;42.694;23.278;2023-04-15T02:21:16;11.00;;;6.20;;
6434;SDS011;3250;42.694;23.278;2023-04-15T02:23:43;10.27;;;6.25;;
6434;SDS011;3250;42.694;23.278;2023-04-15T02:26:08;11.80;;;7.10;;
6434;SDS011;3250;42.694;23.278;2023-04-15T02:28:34;10.97;;;7.63;;
6434;SDS011;3250;42.694;23.278;2023-04-15T02:30:59;14.88;;;9.02;;
6434;SDS011;3250;42.694;23.278;2023-04-15T02:33:26;12.60;;;8.20;;
6434;SDS011;3250;42.694;23.278;2023-04-15T02:35:51;13.47;;;7.73;;
6434;SDS011;3250;42.694;23.278;2023-04-15T02:38:17;15.13;;;9.70;;
6434;SDS011;3250;42.694;23.278;2023-04-15T02:40:42;16.63;;;8.97;;
6434;SDS011;3250;42.694;23.278;2023-04-15T02:43:08;14.03;;;8.63;;
6434;SDS011;3250;42.694;23.278;2023-04-15T02:45:33;15.07;;;8.27;;
6434;SDS011;3250;42.694;23.278;2023-04-15T02:47:59;13.27;;;8.20;;
6434;SDS011;3250;42.694;23.278;2023-04-15T02:50:29;12.70;;;7.87;;
6434;SDS011;3250;42.694;23.278;2023-04-15T02:52:55;11.83;;;7.73;;
6434;SDS011;3250;42.694;23.278;2023-04-15T02:55:21;12.67;;;7.27;;
6434;SDS011;3250;42.694;23.278;2023-04-15T02:57:46;11.52;;;6.50;;
6434;SDS011;3250;42.694;23.278;2023-04-15T03:00:12;9.33;;;6.20;;
6434;SDS011;3250;42.694;23.278;2023-04-15T03:02:38;10.77;;;6.30;;
6434;SDS011;3250;42.694;23.278;2023-04-15T03:05:04;9.50;;;5.57;;
6434;SDS011;3250;42.694;23.278;2023-04-15T03:07:33;10.97;;;5.67;;
6434;SDS011;3250;42.694;23.278;2023-04-15T03:09:58;11.47;;;5.50;;
6434;SDS011;3250;42.694;23.278;2023-04-15T03:12:23;9.17;;;6.07;;
6434;SDS011;3250;42.694;23.278;2023-04-15T03:14:49;12.10;;;6.40;;
6434;SDS011;3250;42.694;23.278;2023-04-15T03:17:14;11.23;;;6.13;;
6434;SDS011;3250;42.694;23.278;2023-04-15T03:19:40;10.77;;;5.97;;
6434;SDS011;3250;42.694;23.278;2023-04-15T03:22:05;10.53;;;5.37;;
6434;SDS011;3250;42.694;23.278;2023-04-15T03:24:31;10.77;;;5.90;;
6434;SDS011;3250;42.694;23.278;2023-04-15T03:26:56;11.53;;;5.57;;
6434;SDS011;3250;42.694;23.278;2023-04-15T03:29:22;11.27;;;6.00;;
6434;SDS011;3250;42.694;23.278;2023-04-15T03:31:47;11.27;;;6.00;;
6434;SDS011;3250;42.694;23.278;2023-04-15T03:34:13;12.10;;;7.27;;
6434;SDS011;3250;42.694;23.278;2023-04-15T03:36:38;10.63;;;6.57;;
6434;SDS011;3250;42.694;23.278;2023-04-15T03:39:04;13.10;;;6.43;;
6434;SDS011;3250;42.694;23.278;2023-04-15T03:41:29;8.60;;;5.73;;
6434;SDS011;3250;42.694;23.278;2023-04-15T03:43:55;8.10;;;5.47;;
6434;SDS011;3250;42.694;23.278;2023-04-15T03:46:20;8.53;;;6.20;;
6434;SDS011;3250;42.694;23.278;2023-04-15T03:48:46;11.07;;;6.77;;
6434;SDS011;3250;42.694;23.278;2023-04-15T03:51:12;12.17;;;6.17;;
6434;SDS011;3250;42.694;23.278;2023-04-15T03:53:37;8.37;;;6.00;;
6434;SDS011;3250;42.694;23.278;2023-04-15T03:56:03;11.83;;;6.87;;
6434;SDS011;3250;42.694;23.278;2023-04-15T03:58:28;10.03;;;5.43;;
6434;SDS011;3250;42.694;23.278;2023-04-15T04:00:54;8.73;;;5.40;;
6434;SDS011;3250;42.694;23.278;2023-04-15T04:03:19;8.60;;;4.97;;
6434;SDS011;3250;42.694;23.278;2023-04-15T04:05:45;13.47;;;6.60;;
6434;SDS011;3250;42.694;23.278;2023-04-15T04:08:10;11.73;;;6.43;;
6434;SDS011;3250;42.694;23.278;2023-04-15T04:10:38;12.07;;;6.67;;
6434;SDS011;3250;42.694;23.278;2023-04-15T04:13:03;11.30;;;7.03;;
6434;SDS011;3250;42.694;23.278;2023-04-15T04:15:29;12.17;;;6.37;;
6434;SDS011;3250;42.694;23.278;2023-04-15T04:17:54;13.83;;;7.93;;
6434;SDS011;3250;42.694;23.278;2023-04-15T04:20:20;12.63;;;6.87;;
6434;SDS011;3250;42.694;23.278;2023-04-15T04:22:45;12.73;;;6.53;;
6434;SDS011;3250;42.694;23.278;2023-04-15T04:25:11;17.30;;;7.70;;
6434;SDS011;3250;42.694;23.278;2023-04-15T04:27:36;16.13;;;7.80;;
6434;SDS011;3250;42.694;23.278;2023-04-15T04:30:02;20.03;;;8.43;;
6434;SDS011;3250;42.694;23.278;2023-04-15T04:32:28;13.43;;;7.60;;
6434;SDS011;3250;42.694;23.278;2023-04-15T04:34:54;14.47;;;8.47;;
6434;SDS011;3250;42.694;23.278;2023-04-15T04:37:20;15.97;;;7.43;;
6434;SDS011;3250;42.694;23.278;2023-04-15T04:39:48;14.57;;;8.07;;
6434;SDS011;3250;42.694;23.278;2023-04-15T04:42:13;16.37;;;9.83;;
6434;SDS011;3250;42.694;23.278;2023-04-15T04:44:39;17.93;;;10.97;;
6434;SDS011;3250;42.694;23.278;2023-04-15T04:47:04;17.47;;;9.97;;
6434;SDS011;3250;42.694;23.278;2023-04-15T04:49:31;19.67;;;10.83;;
6434;SDS011;3250;42.694;23.278;2023-04-15T04:51:57;25.57;;;13.43;;
6434;SDS011;3250;42.694;23.278;2023-04-15T04:54:22;26.63;;;15.50;;
6434;SDS011;3250;42.694;23.278;2023-04-15T04:56:48;28.20;;;15.23;;
6434;SDS011;3250;42.694;23.278;2023-04-15T04:59:13;19.80;;;10.00;;
6434;SDS011;3250;42.694;23.278;2023-04-15T05:01:39;7.22;;;4.68;;
6434;SDS011;3250;42.694;23.278;2023-04-15T05:04:05;6.45;;;4.22;;
6434;SDS011;3250;42.694;23.278;2023-04-15T05:06:31;8.45;;;4.40;;
6434;SDS011;3250;42.694;23.278;2023-04-15T05:08:57;5.65;;;3.88;;
6434;SDS011;3250;42.694;23.278;2023-04-15T05:11:22;7.13;;;4.43;;
6434;SDS011;3250;42.694;23.278;2023-04-15T05:13:47;7.57;;;4.07;;
6434;SDS011;3250;42.694;23.278;2023-04-15T05:16:13;8.10;;;3.85;;
6434;SDS011;3250;42.694;23.278;2023-04-15T05:18:38;10.70;;;4.72;;
6434;SDS011;3250;42.694;23.278;2023-04-15T05:21:04;13.60;;;6.40;;
6434;SDS011;3250;42.694;23.278;2023-04-15T05:23:30;9.00;;;5.03;;
6434;SDS011;3250;42.694;23.278;2023-04-15T05:25:55;8.43;;;3.97;;
6434;SDS011;3250;42.694;23.278;2023-04-15T05:28:21;7.82;;;5.53;;
6434;SDS011;3250;42.694;23.278;2023-04-15T05:30:46;6.28;;;3.70;;
6434;SDS011;3250;42.694;23.278;2023-04-15T05:33:11;5.40;;;3.85;;
6434;SDS011;3250;42.694;23.278;2023-04-15T05:35:37;8.70;;;4.22;;
6434;SDS011;3250;42.694;23.278;2023-04-15T05:38:02;6.43;;;3.97;;
6434;SDS011;3250;42.694;23.278;2023-04-15T05:40:29;6.03;;;3.72;;
6434;SDS011;3250;42.694;23.278;2023-04-15T05:42:54;6.28;;;4.05;;
6434;SDS011;3250;42.694;23.278;2023-04-15T05:45:20;9.75;;;5.25;;
6434;SDS011;3250;42.694;23.278;2023-04-15T05:47:45;5.68;;;4.03;;
6434;SDS011;3250;42.694;23.278;2023-04-15T05:50:11;7.35;;;3.50;;
6434;SDS011;3250;42.694;23.278;2023-04-15T05:52:36;7.47;;;3.80;;
6434;SDS011;3250;42.694;23.278;2023-04-15T05:55:02;7.13;;;3.95;;
6434;SDS011;3250;42.694;23.278;2023-04-15T05:57:27;8.48;;;3.70;;
6434;SDS011;3250;42.694;23.278;2023-04-15T05:59:53;5.43;;;4.13;;
6434;SDS011;3250;42.694;23.278;2023-04-15T06:02:19;8.02;;;4.63;;
6434;SDS011;3250;42.694;23.278;2023-04-15T06:04:45;12.15;;;4.35;;
6434;SDS011;3250;42.694;23.278;2023-04-15T06:07:10;9.60;;;4.55;;
6434;SDS011;3250;42.694;23.278;2023-04-15T06:09:36;6.97;;;4.00;;
6434;SDS011;3250;42.694;23.278;2023-04-15T06:12:01;7.28;;;3.92;;
6434;SDS011;3250;42.694;23.278;2023-04-15T06:14:27;6.70;;;4.72;;
6434;SDS011;3250;42.694;23.278;2023-04-15T06:16:52;9.35;;;5.20;;
6434;SDS011;3250;42.694;23.278;2023-04-15T06:19:18;7.20;;;4.82;;
6434;SDS011;3250;42.694;23.278;2023-04-15T06:21:44;6.10;;;3.70;;
6434;SDS011;3250;42.694;23.278;2023-04-15T06:24:10;10.20;;;4.28;;
6434;SDS011;3250;42.694;23.278;2023-04-15T06:26:36;5.95;;;4.07;;
6434;SDS011;3250;42.694;23.278;2023-04-15T06:29:01;9.00;;;5.15;;
6434;SDS011;3250;42.694;23.278;2023-04-15T06:31:26;8.95;;;4.50;;
6434;SDS011;3250;42.694;23.278;2023-04-15T06:33:52;9.50;;;5.03;;
6434;SDS011;3250;42.694;23.278;2023-04-15T06:36:17;7.35;;;4.35;;
6434;SDS011;3250;42.694;23.278;2023-04-15T06:38:43;8.68;;;4.85;;
6434;SDS011;3250;42.694;23.278;2023-04-15T06:41:09;11.27;;;5.75;;
6434;SDS011;3250;42.694;23.278;2023-04-15T06:43:35;10.50;;;5.72;;
6434;SDS011;3250;42.694;23.278;2023-04-15T06:46:00;10.65;;;5.75;;
6434;SDS011;3250;42.694;23.278;2023-04-15T06:48:26;8.75;;;5.00;;
6434;SDS011;3250;42.694;23.278;2023-04-15T06:50:51;15.20;;;5.57;;
6434;SDS011;3250;42.694;23.278;2023-04-15T06:53:17;7.45;;;4.90;;
6434;SDS011;3250;42.694;23.278;2023-04-15T06:55:43;11.13;;;5.18;;
6434;SDS011;3250;42.694;23.278;2023-04-15T06:58:08;9.52;;;4.57;;
6434;SDS011;3250;42.694;23.278;2023-04-15T07:00:34;13.45;;;5.15;;
6434;SDS011;3250;42.694;23.278;2023-04-15T07:02:59;12.18;;;4.57;;
6434;SDS011;3250;42.694;23.278;2023-04-15T07:05:27;8.75;;;4.95;;
6434;SDS011;3250;42.694;23.278;2023-04-15T07:07:56;8.48;;;5.32;;
6434;SDS011;3250;42.694;23.278;2023-04-15T07:10:22;12.25;;;5.50;;
6434;SDS011;3250;42.694;23.278;2023-04-15T07:12:48;9.82;;;4.57;;
6434;SDS011;3250;42.694;23.278;2023-04-15T07:15:14;10.20;;;4.72;;
6434;SDS011;3250;42.694;23.278;2023-04-15T07:17:40;8.40;;;4.63;;
6434;SDS011;3250;42.694;23.278;2023-04-15T07:20:07;7.07;;;4.78;;
6434;SDS011;3250;42.694;23.278;2023-04-15T07:22:33;11.63;;;4.60;;
6434;SDS011;3250;42.694;23.278;2023-04-15T07:24:58;6.15;;;3.97;;
6434;SDS011;3250;42.694;23.278;2023-04-15T07:27:24;6.70;;;4.68;;
6434;SDS011;3250;42.694;23.278;2023-04-15T07:29:49;10.02;;;4.70;;
6434;SDS011;3250;42.694;23.278;2023-04-15T07:32:16;9.50;;;5.03;;
6434;SDS011;3250;42.694;23.278;2023-04-15T07:34:41;5.90;;;4.13;;
6434;SDS011;3250;42.694;23.278;2023-04-15T07:37:07;7.50;;;3.78;;
6434;SDS011;3250;42.694;23.278;2023-04-15T07:39:32;4.70;;;3.58;;
6434;SDS011;3250;42.694;23.278;2023-04-15T07:41:57;5.80;;;3.25;;
6434;SDS011;3250;42.694;23.278;2023-04-15T07:44:23;7.50;;;2.55;;
6434;SDS011;3250;42.694;23.278;2023-04-15T07:46:50;4.30;;;1.63;;
6434;SDS011;3250;42.694;23.278;2023-04-15T07:49:16;3.08;;;1.55;;
6434;SDS011;3250;42.694;23.278;2023-04-15T07:51:43;3.25;;;1.50;;
6434;SDS011;3250;42.694;23.278;2023-04-15T07:54:08;5.20;;;1.30;;
6434;SDS011;3250;42.694;23.278;2023-04-15T07:56:34;1.65;;;1.40;;
6434;SDS011;3250;42.694;23.278;2023-04-15T07:58:59;4.25;;;1.95;;
6434;SDS011;3250;42.694;23.278;2023-04-15T08:01:26;4.70;;;2.00;;
6434;SDS011;3250;42.694;23.278;2023-04-15T08:03:51;4.75;;;1.73;;
6434;SDS011;3250;42.694;23.278;2023-04-15T08:06:17;1.77;;;1.30;;
6434;SDS011;3250;42.694;23.278;2023-04-15T08:08:42;5.28;;;3.10;;
6434;SDS011;3250;42.694;23.278;2023-04-15T08:11:08;4.50;;;3.00;;
6434;SDS011;3250;42.694;23.278;2023-04-15T08:13:34;6.47;;;2.97;;
6434;SDS011;3250;42.694;23.278;2023-04-15T08:18:43;6.00;;;2.33;;
6434;SDS011;3250;42.694;23.278;2023-04-15T08:21:10;9.18;;;2.78;;
6434;SDS011;3250;42.694;23.278;2023-04-15T08:23:35;3.00;;;2.13;;
6434;SDS011;3250;42.694;23.278;2023-04-15T08:26:01;7.40;;;1.48;;
6434;SDS011;3250;42.694;23.278;2023-04-15T08:28:27;2.75;;;1.75;;
6434;SDS011;3250;42.694;23.278;2023-04-15T08:30:52;3.92;;;1.88;;
6434;SDS011;3250;42.694;23.278;2023-04-15T08:33:18;3.97;;;1.85;;
6434;SDS011;3250;42.694;23.278;2023-04-15T08:35:43;3.88;;;2.08;;
6434;SDS011;3250;42.694;23.278;2023-04-15T08:38:09;2.05;;;1.50;;
6434;SDS011;3250;42.694;23.278;2023-04-15T08:40:38;5.05;;;2.97;;
6434;SDS011;3250;42.694;23.278;2023-04-15T08:43:06;3.15;;;1.40;;
6434;SDS011;3250;42.694;23.278;2023-04-15T08:45:36;5.15;;;1.52;;
6434;SDS011;3250;42.694;23.278;2023-04-15T08:48:04;2.55;;;1.48;;
6434;SDS011;3250;42.694;23.278;2023-04-15T08:50:31;7.00;;;1.50;;
6434;SDS011;3250;42.694;23.278;2023-04-15T08:52:57;2.92;;;1.92;;
6434;SDS011;3250;42.694;23.278;2023-04-15T08:55:25;2.50;;;1.60;;
6434;SDS011;3250;42.694;23.278;2023-04-15T08:57:57;2.92;;;1.52;;
6434;SDS011;3250;42.694;23.278;2023-04-15T09:00:24;3.40;;;1.70;;
6434;SDS011;3250;42.694;23.278;2023-04-15T09:02:50;4.85;;;2.53;;
6434;SDS011;3250;42.694;23.278;2023-04-15T09:05:16;6.53;;;2.25;;
6434;SDS011;3250;42.694;23.278;2023-04-15T09:07:42;3.72;;;1.25;;
6434;SDS011;3250;42.694;23.278;2023-04-15T09:10:08;3.40;;;1.90;;
6434;SDS011;3250;42.694;23.278;2023-04-15T09:12:34;2.83;;;1.50;;
6434;SDS011;3250;42.694;23.278;2023-04-15T09:15:01;3.05;;;1.65;;
6434;SDS011;3250;42.694;23.278;2023-04-15T09:17:27;2.78;;;1.15;;
6434;SDS011;3250;42.694;23.278;2023-04-15T09:20:26;3.00;;;1.48;;
6434;SDS011;3250;42.694;23.278;2023-04-15T09:22:45;2.25;;;1.50;;
6434;SDS011;3250;42.694;23.278;2023-04-15T09:27:47;1.52;;;1.17;;
6434;SDS011;3250;42.694;23.278;2023-04-15T09:30:14;2.70;;;1.25;;
6434;SDS011;3250;42.694;23.278;2023-04-15T09:32:50;3.55;;;1.30;;
6434;SDS011;3250;42.694;23.278;2023-04-15T09:35:19;3.67;;;1.20;;
6434;SDS011;3250;42.694;23.278;2023-04-15T09:37:45;4.40;;;2.05;;
6434;SDS011;3250;42.694;23.278;2023-04-15T09:40:11;1.95;;;1.30;;
6434;SDS011;3250;42.694;23.278;2023-04-15T09:42:58;2.00;;;1.20;;
6434;SDS011;3250;42.694;23.278;2023-04-15T09:45:23;5.18;;;1.30;;
6434;SDS011;3250;42.694;23.278;2023-04-15T09:47:49;2.15;;;1.40;;
6434;SDS011;3250;42.694;23.278;2023-04-15T09:50:17;2.95;;;1.10;;
6434;SDS011;3250;42.694;23.278;2023-04-15T09:52:44;2.00;;;1.40;;
6434;SDS011;3250;42.694;23.278;2023-04-15T09:55:10;4.18;;;1.30;;
6434;SDS011;3250;42.694;23.278;2023-04-15T09:57:37;1.35;;;1.02;;
6434;SDS011;3250;42.694;23.278;2023-04-15T10:00:06;2.53;;;1.23;;
6434;SDS011;3250;42.694;23.278;2023-04-15T10:02:33;3.30;;;1.20;;
6434;SDS011;3250;42.694;23.278;2023-04-15T10:05:00;2.22;;;1.10;;
6434;SDS011;3250;42.694;23.278;2023-04-15T10:07:26;1.50;;;1.10;;
6434;SDS011;3250;42.694;23.278;2023-04-15T10:09:52;1.35;;;1.08;;
6434;SDS011;3250;42.694;23.278;2023-04-15T10:12:18;2.65;;;1.45;;
6434;SDS011;3250;42.694;23.278;2023-04-15T10:14:47;2.28;;;1.23;;
6434;SDS011;3250;42.694;23.278;2023-04-15T10:17:16;1.63;;;1.30;;
6434;SDS011;3250;42.694;23.278;2023-04-15T10:19:42;3.22;;;1.15;;
6434;SDS011;3250;42.694;23.278;2023-04-15T10:22:09;3.30;;;1.25;;
6434;SDS011;3250;42.694;23.278;2023-04-15T10:24:34;2.55;;;1.15;;
6434;SDS011;3250;42.694;23.278;2023-04-15T10:27:02;5.22;;;1.52;;
6434;SDS011;3250;42.694;23.278;2023-04-15T10:29:29;6.78;;;1.77;;
6434;SDS011;3250;42.694;23.278;2023-04-15T10:31:55;4.97;;;1.98;;
6434;SDS011;3250;42.694;23.278;2023-04-15T10:34:23;2.47;;;1.13;;
6434;SDS011;3250;42.694;23.278;2023-04-15T10:36:50;4.57;;;1.38;;
6434;SDS011;3250;42.694;23.278;2023-04-15T10:39:41;3.80;;;1.17;;
6434;SDS011;3250;42.694;23.278;2023-04-15T10:42:08;1.35;;;1.17;;
6434;SDS011;3250;42.694;23.278;2023-04-15T10:44:40;2.47;;;1.20;;
6434;SDS011;3250;42.694;23.278;2023-04-15T10:47:09;3.35;;;1.30;;
6434;SDS011;3250;42.694;23.278;2023-04-15T10:49:41;2.05;;;1.20;;
6434;SDS011;3250;42.694;23.278;2023-04-15T10:52:09;4.75;;;1.95;;
6434;SDS011;3250;42.694;23.278;2023-04-15T10:54:35;3.00;;;1.00;;
6434;SDS011;3250;42.694;23.278;2023-04-15T10:59:29;2.80;;;1.30;;
6434;SDS011;3250;42.694;23.278;2023-04-15T11:01:56;4.40;;;1.60;;
6434;SDS011;3250;42.694;23.278;2023-04-15T11:09:57;2.05;;;1.23;;
6434;SDS011;3250;42.694;23.278;2023-04-15T11:12:22;1.15;;;1.05;;
6434;SDS011;3250;42.694;23.278;2023-04-15T11:14:59;1.88;;;1.30;;
6434;SDS011;3250;42.694;23.278;2023-04-15T11:17:27;5.35;;;1.35;;
6434;SDS011;3250;42.694;23.278;2023-04-15T11:19:53;1.95;;;1.35;;
6434;SDS011;3250;42.694;23.278;2023-04-15T11:22:18;4.60;;;2.03;;
6434;SDS011;3250;42.694;23.278;2023-04-15T11:24:47;2.17;;;1.40;;
6434;SDS011;3250;42.694;23.278;2023-04-15T11:27:22;3.25;;;1.73;;
6434;SDS011;3250;42.694;23.278;2023-04-15T11:29:48;2.45;;;1.60;;
6434;SDS011;3250;42.694;23.278;2023-04-15T11:32:13;4.15;;;1.70;;
6434;SDS011;3250;42.694;23.278;2023-04-15T11:34:38;2.40;;;1.13;;
6434;SDS011;3250;42.694;23.278;2023-04-15T11:37:04;4.65;;;2.00;;
6434;SDS011;3250;42.694;23.278;2023-04-15T11:39:30;2.53;;;1.38;;
6434;SDS011;3250;42.694;23.278;2023-04-15T11:41:56;1.55;;;1.10;;
6434;SDS011;3250;42.694;23.278;2023-04-15T11:44:22;4.32;;;1.60;;
6434;SDS011;3250;42.694;23.278;2023-04-15T11:46:47;3.00;;;2.05;;
6434;SDS011;3250;42.694;23.278;2023-04-15T11:49:24;3.60;;;1.42;;
6434;SDS011;3250;42.694;23.278;2023-04-15T11:51:51;2.63;;;1.40;;
6434;SDS011;3250;42.694;23.278;2023-04-15T11:54:19;5.63;;;1.10;;
6434;SDS011;3250;42.694;23.278;2023-04-15T11:56:49;2.05;;;1.20;;
6434;SDS011;3250;42.694;23.278;2023-04-15T11:59:16;2.97;;;1.35;;
6434;SDS011;3250;42.694;23.278;2023-04-15T12:01:41;1.95;;;1.38;;
6434;SDS011;3250;42.694;23.278;2023-04-15T12:04:11;2.03;;;1.13;;
6434;SDS011;3250;42.694;23.278;2023-04-15T12:06:41;2.35;;;1.45;;
6434;SDS011;3250;42.694;23.278;2023-04-15T12:09:07;2.50;;;1.38;;
6434;SDS011;3250;42.694;23.278;2023-04-15T12:11:35;4.57;;;2.95;;
6434;SDS011;3250;42.694;23.278;2023-04-15T12:14:03;1.52;;;1.10;;
6434;SDS011;3250;42.694;23.278;2023-04-15T12:17:04;3.72;;;1.40;;
6434;SDS011;3250;42.694;23.278;2023-04-15T12:19:34;3.60;;;1.67;;
6434;SDS011;3250;42.694;23.278;2023-04-15T12:22:02;3.70;;;1.48;;
6434;SDS011;3250;42.694;23.278;2023-04-15T12:24:32;3.00;;;1.10;;
6434;SDS011;3250;42.694;23.278;2023-04-15T12:27:02;2.90;;;1.30;;
6434;SDS011;3250;42.694;23.278;2023-04-15T12:29:28;2.33;;;1.15;;
6434;SDS011;3250;42.694;23.278;2023-04-15T12:32:13;2.40;;;0.88;;
6434;SDS011;3250;42.694;23.278;2023-04-15T12:34:43;4.03;;;1.52;;
6434;SDS011;3250;42.694;23.278;2023-04-15T12:37:13;1.60;;;1.25;;
6434;SDS011;3250;42.694;23.278;2023-04-15T12:39:39;4.65;;;1.20;;
6434;SDS011;3250;42.694;23.278;2023-04-15T12:42:07;0.95;;;0.90;;
6434;SDS011;3250;42.694;23.278;2023-04-15T12:44:33;5.82;;;1.30;;
6434;SDS011;3250;42.694;23.278;2023-04-15T12:46:59;3.00;;;1.00;;
6434;SDS011;3250;42.694;23.278;2023-04-15T12:49:25;5.93;;;1.23;;
6434;SDS011;3250;42.694;23.278;2023-04-15T12:51:52;1.20;;;1.10;;
6434;SDS011;3250;42.694;23.278;2023-04-15T12:54:19;2.45;;;1.33;;
6434;SDS011;3250;42.694;23.278;2023-04-15T12:56:45;4.57;;;1.35;;
6434;SDS011;3250;42.694;23.278;2023-04-15T12:59:12;1.77;;;1.02;;
6434;SDS011;3250;42.694;23.278;2023-04-15T13:01:38;2.75;;;1.10;;
6434;SDS011;3250;42.694;23.278;2023-04-15T13:04:04;1.05;;;0.98;;
6434;SDS011;3250;42.694;23.278;2023-04-15T13:06:30;4.90;;;1.70;;
6434;SDS011;3250;42.694;23.278;2023-04-15T13:08:57;5.60;;;1.30;;
6434;SDS011;3250;42.694;23.278;2023-04-15T13:11:25;2.85;;;1.20;;
6434;SDS011;3250;42.694;23.278;2023-04-15T13:13:51;1.73;;;1.15;;
6434;SDS011;3250;42.694;23.278;2023-04-15T13:16:17;1.05;;;0.90;;
6434;SDS011;3250;42.694;23.278;2023-04-15T13:18:43;3.13;;;1.10;;
6434;SDS011;3250;42.694;23.278;2023-04-15T13:21:11;2.35;;;1.00;;
6434;SDS011;3250;42.694;23.278;2023-04-15T13:23:37;5.32;;;1.20;;
6434;SDS011;3250;42.694;23.278;2023-04-15T13:26:02;3.78;;;2.10;;
6434;SDS011;3250;42.694;23.278;2023-04-15T13:28:28;5.80;;;1.10;;
6434;SDS011;3250;42.694;23.278;2023-04-15T13:30:53;2.20;;;1.30;;
6434;SDS011;3250;42.694;23.278;2023-04-15T13:33:18;2.40;;;1.38;;
6434;SDS011;3250;42.694;23.278;2023-04-15T13:35:44;3.47;;;1.30;;
6434;SDS011;3250;42.694;23.278;2023-04-15T13:38:09;1.98;;;1.20;;
6434;SDS011;3250;42.694;23.278;2023-04-15T13:40:35;2.75;;;0.85;;
6434;SDS011;3250;42.694;23.278;2023-04-15T13:43:00;2.50;;;1.25;;
6434;SDS011;3250;42.694;23.278;2023-04-15T13:45:27;0.73;;;0.73;;
6434;SDS011;3250;42.694;23.278;2023-04-15T13:47:52;1.27;;;0.90;;
6434;SDS011;3250;42.694;23.278;2023-04-15T13:50:20;1.73;;;1.10;;
6434;SDS011;3250;42.694;23.278;2023-04-15T13:52:45;1.48;;;0.90;;
6434;SDS011;3250;42.694;23.278;2023-04-15T13:55:11;4.70;;;1.35;;
6434;SDS011;3250;42.694;23.278;2023-04-15T13:57:36;1.20;;;1.10;;
6434;SDS011;3250;42.694;23.278;2023-04-15T14:00:02;1.83;;;1.13;;
6434;SDS011;3250;42.694;23.278;2023-04-15T14:02:28;2.40;;;0.90;;
6434;SDS011;3250;42.694;23.278;2023-04-15T14:04:54;0.82;;;0.80;;
6434;SDS011;3250;42.694;23.278;2023-04-15T14:07:19;2.70;;;1.45;;
6434;SDS011;3250;42.694;23.278;2023-04-15T14:09:45;6.55;;;1.40;;
6434;SDS011;3250;42.694;23.278;2023-04-15T14:12:10;1.92;;;0.95;;
6434;SDS011;3250;42.694;23.278;2023-04-15T14:14:35;1.80;;;1.15;;
6434;SDS011;3250;42.694;23.278;2023-04-15T14:17:01;1.27;;;0.95;;
6434;SDS011;3250;42.694;23.278;2023-04-15T14:19:28;2.63;;;1.20;;
6434;SDS011;3250;42.694;23.278;2023-04-15T14:21:54;1.45;;;1.13;;
6434;SDS011;3250;42.694;23.278;2023-04-15T14:24:20;1.70;;;1.25;;
6434;SDS011;3250;42.694;23.278;2023-04-15T14:26:45;6.97;;;1.67;;
6434;SDS011;3250;42.694;23.278;2023-04-15T14:29:10;3.67;;;1.38;;
6434;SDS011;3250;42.694;23.278;2023-04-15T14:31:36;1.70;;;1.10;;
6434;SDS011;3250;42.694;23.278;2023-04-15T14:34:02;2.17;;;1.38;;
6434;SDS011;3250;42.694;23.278;2023-04-15T14:36:27;1.30;;;1.05;;
6434;SDS011;3250;42.694;23.278;2023-04-15T14:38:53;1.42;;;0.90;;
6434;SDS011;3250;42.694;23.278;2023-04-15T14:41:19;2.47;;;1.58;;
6434;SDS011;3250;42.694;23.278;2023-04-15T14:43:46;1.45;;;1.00;;
6434;SDS011;3250;42.694;23.278;2023-04-15T14:46:11;1.58;;;1.27;;
6434;SDS011;3250;42.694;23.278;2023-04-15T14:48:38;1.20;;;0.95;;
6434;SDS011;3250;42.694;23.278;2023-04-15T14:51:04;3.97;;;1.17;;
6434;SDS011;3250;42.694;23.278;2023-04-15T14:53:29;2.72;;;0.95;;
6434;SDS011;3250;42.694;23.278;2023-04-15T14:55:55;2.60;;;1.25;;
6434;SDS011;3250;42.694;23.278;2023-04-15T14:58:20;1.45;;;1.08;;
6434;SDS011;3250;42.694;23.278;2023-04-15T15:00:46;1.38;;;0.82;;
6434;SDS011;3250;42.694;23.278;2023-04-15T15:03:12;2.97;;;1.70;;
6434;SDS011;3250;42.694;23.278;2023-04-15T15:05:38;7.95;;;1.00;;